sensor_id;sensor_type;location;lat;lon;timestamp;temperature;humidity
16038;DHT22;8123;50.906;6.172;2022-08-19T00:00:17;18.40;99.90
16038;DHT22;8123;50.906;6.172;2022-08-19T00:02:43;18.30;99.90
16038;DHT22;8123;50.906;6.172;2022-08-19T00:05:10;18.30;99.90
16038;DHT22;8123;50.906;6.172;2022-08-19T00:07:36;18.20;99.90
16038;DHT22;8123;50.906;6.172;2022-08-19T00:10:04;18.20;99.90
16038;DHT22;8123;50.906;6.172;2022-08-19T00:12:31;18.20;99.90
16038;DHT22;8123;50.906;6.172;2022-08-19T00:14:56;18.10;99.90
16038;DHT22;8123;50.906;6.172;2022-08-19T00:17:22;18.10;99.90
16038;DHT22;8123;50.906;6.172;2022-08-19T00:19:48;18.10;99.90
16038;DHT22;8123;50.906;6.172;2022-08-19T00:22:13;18.10;99.90
16038;DHT22;8123;50.906;6.172;2022-08-19T00:24:40;18.10;99.90
16038;DHT22;8123;50.906;6.172;2022-08-19T00:27:06;18.00;99.90
16038;DHT22;8123;50.906;6.172;2022-08-19T00:29:32;18.00;99.90
16038;DHT22;8123;50.906;6.172;2022-08-19T00:31:57;17.90;99.90
16038;DHT22;8123;50.906;6.172;2022-08-19T00:34:25;17.90;99.90
16038;DHT22;8123;50.906;6.172;2022-08-19T00:36:53;17.90;99.90
16038;DHT22;8123;50.906;6.172;2022-08-19T00:39:19;17.90;99.90
16038;DHT22;8123;50.906;6.172;2022-08-19T00:41:46;17.80;99.90
16038;DHT22;8123;50.906;6.172;2022-08-19T00:44:21;17.80;99.90
16038;DHT22;8123;50.906;6.172;2022-08-19T00:46:49;17.80;99.90
16038;DHT22;8123;50.906;6.172;2022-08-19T00:49:32;17.70;99.90
16038;DHT22;8123;50.906;6.172;2022-08-19T00:52:15;17.70;99.90
16038;DHT22;8123;50.906;6.172;2022-08-19T00:54:42;17.70;99.90
16038;DHT22;8123;50.906;6.172;2022-08-19T00:57:15;17.70;99.90
16038;DHT22;8123;50.906;6.172;2022-08-19T00:59:45;17.60;99.90
16038;DHT22;8123;50.906;6.172;2022-08-19T01:02:11;17.60;99.90
16038;DHT22;8123;50.906;6.172;2022-08-19T01:04:37;17.60;99.90
16038;DHT22;8123;50.906;6.172;2022-08-19T01:07:03;17.50;99.90
16038;DHT22;8123;50.906;6.172;2022-08-19T01:09:29;17.50;99.90
16038;DHT22;8123;50.906;6.172;2022-08-19T01:11:56;17.50;99.90
16038;DHT22;8123;50.906;6.172;2022-08-19T01:14:22;17.50;99.90
16038;DHT22;8123;50.906;6.172;2022-08-19T01:16:49;17.50;99.90
16038;DHT22;8123;50.906;6.172;2022-08-19T01:19:36;17.50;99.90
16038;DHT22;8123;50.906;6.172;2022-08-19T01:22:12;17.50;99.90
16038;DHT22;8123;50.906;6.172;2022-08-19T01:24:40;17.40;99.90
16038;DHT22;8123;50.906;6.172;2022-08-19T01:27:06;17.40;99.90
16038;DHT22;8123;50.906;6.172;2022-08-19T01:29:32;17.40;99.90
16038;DHT22;8123;50.906;6.172;2022-08-19T01:32:00;17.40;99.90
16038;DHT22;8123;50.906;6.172;2022-08-19T01:34:26;17.40;99.90
16038;DHT22;8123;50.906;6.172;2022-08-19T01:36:52;17.40;99.90
16038;DHT22;8123;50.906;6.172;2022-08-19T01:39:21;17.40;99.90
16038;DHT22;8123;50.906;6.172;2022-08-19T01:41:47;17.40;99.90
16038;DHT22;8123;50.906;6.172;2022-08-19T01:44:13;17.40;99.90
16038;DHT22;8123;50.906;6.172;2022-08-19T01:46:39;17.40;99.90
16038;DHT22;8123;50.906;6.172;2022-08-19T01:49:06;17.30;99.90
16038;DHT22;8123;50.906;6.172;2022-08-19T01:51:31;17.30;99.90
16038;DHT22;8123;50.906;6.172;2022-08-19T01:53:58;17.40;99.90
16038;DHT22;8123;50.906;6.172;2022-08-19T01:56:24;17.30;99.90
16038;DHT22;8123;50.906;6.172;2022-08-19T01:58:53;17.20;99.90
16038;DHT22;8123;50.906;6.172;2022-08-19T02:01:20;17.20;99.90
16038;DHT22;8123;50.906;6.172;2022-08-19T02:03:46;17.20;99.90
16038;DHT22;8123;50.906;6.172;2022-08-19T02:06:12;17.20;99.90
16038;DHT22;8123;50.906;6.172;2022-08-19T02:08:39;17.20;99.90
16038;DHT22;8123;50.906;6.172;2022-08-19T02:11:06;17.20;99.90
16038;DHT22;8123;50.906;6.172;2022-08-19T02:13:33;17.20;99.90
16038;DHT22;8123;50.906;6.172;2022-08-19T02:15:59;17.30;99.90
16038;DHT22;8123;50.906;6.172;2022-08-19T02:18:25;17.30;99.90
16038;DHT22;8123;50.906;6.172;2022-08-19T02:20:52;17.30;99.90
16038;DHT22;8123;50.906;6.172;2022-08-19T02:23:18;17.30;99.90
16038;DHT22;8123;50.906;6.172;2022-08-19T02:25:47;17.30;99.90
16038;DHT22;8123;50.906;6.172;2022-08-19T02:28:13;17.30;99.90
16038;DHT22;8123;50.906;6.172;2022-08-19T02:30:41;17.30;99.90
16038;DHT22;8123;50.906;6.172;2022-08-19T02:33:07;17.30;99.90
16038;DHT22;8123;50.906;6.172;2022-08-19T02:35:33;17.40;99.90
16038;DHT22;8123;50.906;6.172;2022-08-19T02:37:59;17.40;99.90
16038;DHT22;8123;50.906;6.172;2022-08-19T02:40:49;17.40;99.90
16038;DHT22;8123;50.906;6.172;2022-08-19T02:43:15;17.30;99.90
16038;DHT22;8123;50.906;6.172;2022-08-19T02:45:41;17.40;99.90
16038;DHT22;8123;50.906;6.172;2022-08-19T02:48:07;17.30;99.90
16038;DHT22;8123;50.906;6.172;2022-08-19T02:50:37;17.60;99.90
16038;DHT22;8123;50.906;6.172;2022-08-19T02:53:04;17.30;99.90
16038;DHT22;8123;50.906;6.172;2022-08-19T02:55:29;17.30;99.90
16038;DHT22;8123;50.906;6.172;2022-08-19T02:57:55;17.30;99.90
16038;DHT22;8123;50.906;6.172;2022-08-19T03:00:22;17.30;99.90
16038;DHT22;8123;50.906;6.172;2022-08-19T03:02:49;17.30;99.90
16038;DHT22;8123;50.906;6.172;2022-08-19T03:05:14;17.30;99.90
16038;DHT22;8123;50.906;6.172;2022-08-19T03:07:40;17.30;99.90
16038;DHT22;8123;50.906;6.172;2022-08-19T03:10:06;17.40;99.90
16038;DHT22;8123;50.906;6.172;2022-08-19T03:12:35;17.40;99.90
16038;DHT22;8123;50.906;6.172;2022-08-19T03:15:01;17.50;99.90
16038;DHT22;8123;50.906;6.172;2022-08-19T03:17:27;17.50;99.90
16038;DHT22;8123;50.906;6.172;2022-08-19T03:19:52;17.50;99.90
16038;DHT22;8123;50.906;6.172;2022-08-19T03:22:18;17.60;99.90
16038;DHT22;8123;50.906;6.172;2022-08-19T03:24:43;17.60;99.90
16038;DHT22;8123;50.906;6.172;2022-08-19T03:27:09;17.50;99.90
16038;DHT22;8123;50.906;6.172;2022-08-19T03:29:37;17.60;99.90
16038;DHT22;8123;50.906;6.172;2022-08-19T03:32:04;17.50;99.90
16038;DHT22;8123;50.906;6.172;2022-08-19T03:34:32;17.50;99.90
16038;DHT22;8123;50.906;6.172;2022-08-19T03:37:04;17.50;99.90
16038;DHT22;8123;50.906;6.172;2022-08-19T03:39:30;17.50;99.90
16038;DHT22;8123;50.906;6.172;2022-08-19T03:41:56;17.50;99.90
16038;DHT22;8123;50.906;6.172;2022-08-19T03:44:23;17.50;99.90
16038;DHT22;8123;50.906;6.172;2022-08-19T03:46:54;17.50;99.90
16038;DHT22;8123;50.906;6.172;2022-08-19T03:49:24;17.50;99.90
16038;DHT22;8123;50.906;6.172;2022-08-19T03:51:50;17.50;99.90
16038;DHT22;8123;50.906;6.172;2022-08-19T03:54:19;17.40;99.90
16038;DHT22;8123;50.906;6.172;2022-08-19T03:56:47;17.40;99.90
16038;DHT22;8123;50.906;6.172;2022-08-19T03:59:18;17.30;99.90
16038;DHT22;8123;50.906;6.172;2022-08-19T04:01:44;17.30;99.90
16038;DHT22;8123;50.906;6.172;2022-08-19T04:04:10;17.20;99.90
16038;DHT22;8123;50.906;6.172;2022-08-19T04:06:37;17.30;99.90
16038;DHT22;8123;50.906;6.172;2022-08-19T04:09:06;17.20;99.90
16038;DHT22;8123;50.906;6.172;2022-08-19T04:11:45;17.20;99.90
16038;DHT22;8123;50.906;6.172;2022-08-19T04:14:18;17.30;99.90
16038;DHT22;8123;50.906;6.172;2022-08-19T04:16:45;17.30;99.90
16038;DHT22;8123;50.906;6.172;2022-08-19T04:19:12;17.30;99.90
16038;DHT22;8123;50.906;6.172;2022-08-19T04:21:38;17.30;99.90
16038;DHT22;8123;50.906;6.172;2022-08-19T04:24:04;17.30;99.90
16038;DHT22;8123;50.906;6.172;2022-08-19T04:26:33;17.30;99.90
16038;DHT22;8123;50.906;6.172;2022-08-19T04:29:01;17.30;99.90
16038;DHT22;8123;50.906;6.172;2022-08-19T04:31:30;17.30;99.90
16038;DHT22;8123;50.906;6.172;2022-08-19T04:33:57;17.30;99.90
16038;DHT22;8123;50.906;6.172;2022-08-19T04:36:35;17.30;99.90
16038;DHT22;8123;50.906;6.172;2022-08-19T04:39:05;17.30;99.90
16038;DHT22;8123;50.906;6.172;2022-08-19T04:41:32;17.30;99.90
16038;DHT22;8123;50.906;6.172;2022-08-19T04:44:17;17.20;99.90
16038;DHT22;8123;50.906;6.172;2022-08-19T04:46:44;17.20;99.90
16038;DHT22;8123;50.906;6.172;2022-08-19T04:49:10;17.20;99.90
16038;DHT22;8123;50.906;6.172;2022-08-19T04:51:39;17.20;99.90
16038;DHT22;8123;50.906;6.172;2022-08-19T04:54:05;17.20;99.90
16038;DHT22;8123;50.906;6.172;2022-08-19T04:56:30;17.30;99.90
16038;DHT22;8123;50.906;6.172;2022-08-19T04:58:57;17.30;99.90
16038;DHT22;8123;50.906;6.172;2022-08-19T05:01:28;17.30;99.90
16038;DHT22;8123;50.906;6.172;2022-08-19T05:03:55;17.30;99.90
16038;DHT22;8123;50.906;6.172;2022-08-19T05:06:22;17.30;99.90
16038;DHT22;8123;50.906;6.172;2022-08-19T05:08:49;17.40;99.90
16038;DHT22;8123;50.906;6.172;2022-08-19T05:11:22;17.40;99.90
16038;DHT22;8123;50.906;6.172;2022-08-19T05:13:48;17.40;99.90
16038;DHT22;8123;50.906;6.172;2022-08-19T05:16:16;17.40;99.90
16038;DHT22;8123;50.906;6.172;2022-08-19T05:18:43;17.50;99.90
16038;DHT22;8123;50.906;6.172;2022-08-19T05:21:28;17.40;99.90
16038;DHT22;8123;50.906;6.172;2022-08-19T05:24:13;17.40;99.90
16038;DHT22;8123;50.906;6.172;2022-08-19T05:26:45;17.40;99.90
16038;DHT22;8123;50.906;6.172;2022-08-19T05:29:16;17.40;99.90
16038;DHT22;8123;50.906;6.172;2022-08-19T05:31:42;17.40;99.90
16038;DHT22;8123;50.906;6.172;2022-08-19T05:34:09;17.40;99.90
16038;DHT22;8123;50.906;6.172;2022-08-19T05:36:38;17.40;99.90
16038;DHT22;8123;50.906;6.172;2022-08-19T05:39:06;17.40;99.90
16038;DHT22;8123;50.906;6.172;2022-08-19T05:41:32;17.40;99.90
16038;DHT22;8123;50.906;6.172;2022-08-19T05:44:01;17.40;99.90
16038;DHT22;8123;50.906;6.172;2022-08-19T05:46:27;17.40;99.90
16038;DHT22;8123;50.906;6.172;2022-08-19T05:48:53;17.50;99.90
16038;DHT22;8123;50.906;6.172;2022-08-19T05:51:22;17.50;99.90
16038;DHT22;8123;50.906;6.172;2022-08-19T05:53:49;17.50;99.90
16038;DHT22;8123;50.906;6.172;2022-08-19T05:56:16;17.50;99.90
16038;DHT22;8123;50.906;6.172;2022-08-19T05:58:43;17.60;99.90
16038;DHT22;8123;50.906;6.172;2022-08-19T06:01:13;17.50;99.90
16038;DHT22;8123;50.906;6.172;2022-08-19T06:03:40;17.60;99.90
16038;DHT22;8123;50.906;6.172;2022-08-19T06:06:06;17.70;99.90
16038;DHT22;8123;50.906;6.172;2022-08-19T06:08:33;17.70;99.90
16038;DHT22;8123;50.906;6.172;2022-08-19T06:13:40;17.70;99.90
16038;DHT22;8123;50.906;6.172;2022-08-19T06:16:05;17.80;99.90
16038;DHT22;8123;50.906;6.172;2022-08-19T06:18:31;17.80;99.90
16038;DHT22;8123;50.906;6.172;2022-08-19T06:20:58;17.80;99.90
16038;DHT22;8123;50.906;6.172;2022-08-19T06:23:24;17.90;99.90
16038;DHT22;8123;50.906;6.172;2022-08-19T06:25:49;17.90;99.90
16038;DHT22;8123;50.906;6.172;2022-08-19T06:28:15;17.80;99.90
16038;DHT22;8123;50.906;6.172;2022-08-19T06:30:42;17.90;99.90
16038;DHT22;8123;50.906;6.172;2022-08-19T06:33:08;17.90;99.90
16038;DHT22;8123;50.906;6.172;2022-08-19T06:35:39;18.00;99.90
16038;DHT22;8123;50.906;6.172;2022-08-19T06:38:05;18.00;99.90
16038;DHT22;8123;50.906;6.172;2022-08-19T06:40:36;18.00;99.90
16038;DHT22;8123;50.906;6.172;2022-08-19T06:43:03;18.10;99.90
16038;DHT22;8123;50.906;6.172;2022-08-19T06:45:29;18.10;99.90
16038;DHT22;8123;50.906;6.172;2022-08-19T06:47:55;18.10;99.90
16038;DHT22;8123;50.906;6.172;2022-08-19T06:50:24;18.20;99.90
16038;DHT22;8123;50.906;6.172;2022-08-19T06:52:50;18.30;99.90
16038;DHT22;8123;50.906;6.172;2022-08-19T06:55:18;18.40;99.90
16038;DHT22;8123;50.906;6.172;2022-08-19T06:57:44;18.50;99.90
16038;DHT22;8123;50.906;6.172;2022-08-19T07:00:11;18.60;99.90
16038;DHT22;8123;50.906;6.172;2022-08-19T07:02:40;18.70;99.90
16038;DHT22;8123;50.906;6.172;2022-08-19T07:05:06;18.80;99.90
16038;DHT22;8123;50.906;6.172;2022-08-19T07:07:32;18.90;99.90
16038;DHT22;8123;50.906;6.172;2022-08-19T07:10:00;19.00;99.90
16038;DHT22;8123;50.906;6.172;2022-08-19T07:12:28;19.10;99.90
16038;DHT22;8123;50.906;6.172;2022-08-19T07:14:57;19.10;99.90
16038;DHT22;8123;50.906;6.172;2022-08-19T07:17:23;19.10;99.90
16038;DHT22;8123;50.906;6.172;2022-08-19T07:19:48;19.20;99.90
16038;DHT22;8123;50.906;6.172;2022-08-19T07:22:15;19.20;99.90
16038;DHT22;8123;50.906;6.172;2022-08-19T07:24:41;19.20;99.90
16038;DHT22;8123;50.906;6.172;2022-08-19T07:27:07;19.30;99.90
16038;DHT22;8123;50.906;6.172;2022-08-19T07:29:35;19.30;99.90
16038;DHT22;8123;50.906;6.172;2022-08-19T07:32:02;19.30;99.90
16038;DHT22;8123;50.906;6.172;2022-08-19T07:34:29;19.40;99.90
16038;DHT22;8123;50.906;6.172;2022-08-19T07:36:55;19.50;99.90
16038;DHT22;8123;50.906;6.172;2022-08-19T07:39:28;19.50;99.90
16038;DHT22;8123;50.906;6.172;2022-08-19T07:41:56;19.70;99.90
16038;DHT22;8123;50.906;6.172;2022-08-19T07:44:23;19.70;99.90
16038;DHT22;8123;50.906;6.172;2022-08-19T07:46:51;19.90;99.90
16038;DHT22;8123;50.906;6.172;2022-08-19T07:49:18;20.00;99.90
16038;DHT22;8123;50.906;6.172;2022-08-19T07:51:49;20.10;99.90
16038;DHT22;8123;50.906;6.172;2022-08-19T07:54:15;20.10;99.90
16038;DHT22;8123;50.906;6.172;2022-08-19T07:56:41;20.10;99.90
16038;DHT22;8123;50.906;6.172;2022-08-19T07:59:07;20.20;99.90
16038;DHT22;8123;50.906;6.172;2022-08-19T08:01:35;20.30;99.90
16038;DHT22;8123;50.906;6.172;2022-08-19T08:04:01;20.30;99.90
16038;DHT22;8123;50.906;6.172;2022-08-19T08:06:45;20.40;99.90
16038;DHT22;8123;50.906;6.172;2022-08-19T08:09:32;20.40;99.90
16038;DHT22;8123;50.906;6.172;2022-08-19T08:14:47;20.30;99.90
16038;DHT22;8123;50.906;6.172;2022-08-19T08:17:15;20.20;99.90
16038;DHT22;8123;50.906;6.172;2022-08-19T08:19:42;20.20;99.90
16038;DHT22;8123;50.906;6.172;2022-08-19T08:22:10;20.20;99.90
16038;DHT22;8123;50.906;6.172;2022-08-19T08:24:56;20.10;99.90
16038;DHT22;8123;50.906;6.172;2022-08-19T08:27:24;20.10;99.90
16038;DHT22;8123;50.906;6.172;2022-08-19T08:29:50;20.10;99.90
16038;DHT22;8123;50.906;6.172;2022-08-19T08:32:16;20.10;99.90
16038;DHT22;8123;50.906;6.172;2022-08-19T08:34:42;20.20;99.90
16038;DHT22;8123;50.906;6.172;2022-08-19T08:37:08;20.20;99.90
16038;DHT22;8123;50.906;6.172;2022-08-19T08:39:33;20.20;99.90
16038;DHT22;8123;50.906;6.172;2022-08-19T08:42:19;20.20;99.90
16038;DHT22;8123;50.906;6.172;2022-08-19T08:47:21;20.20;99.90
16038;DHT22;8123;50.906;6.172;2022-08-19T08:49:55;20.10;99.90
16038;DHT22;8123;50.906;6.172;2022-08-19T08:52:25;20.20;99.90
16038;DHT22;8123;50.906;6.172;2022-08-19T08:54:57;20.20;99.90
16038;DHT22;8123;50.906;6.172;2022-08-19T08:57:37;20.20;99.90
16038;DHT22;8123;50.906;6.172;2022-08-19T09:00:13;20.10;99.90
16038;DHT22;8123;50.906;6.172;2022-08-19T09:02:40;20.00;99.90
16038;DHT22;8123;50.906;6.172;2022-08-19T09:05:06;20.00;99.90
16038;DHT22;8123;50.906;6.172;2022-08-19T09:10:40;20.10;99.90
16038;DHT22;8123;50.906;6.172;2022-08-19T09:15:43;20.30;99.90
16038;DHT22;8123;50.906;6.172;2022-08-19T09:18:10;20.40;99.90
16038;DHT22;8123;50.906;6.172;2022-08-19T09:20:36;20.60;99.90
16038;DHT22;8123;50.906;6.172;2022-08-19T09:23:03;20.70;99.90
16038;DHT22;8123;50.906;6.172;2022-08-19T09:25:29;20.70;99.90
16038;DHT22;8123;50.906;6.172;2022-08-19T09:27:57;20.80;99.90
16038;DHT22;8123;50.906;6.172;2022-08-19T09:30:26;20.90;99.90
16038;DHT22;8123;50.906;6.172;2022-08-19T09:32:53;21.00;99.90
16038;DHT22;8123;50.906;6.172;2022-08-19T09:35:21;21.10;99.90
16038;DHT22;8123;50.906;6.172;2022-08-19T09:37:48;21.20;99.90
16038;DHT22;8123;50.906;6.172;2022-08-19T09:40:15;21.20;99.90
16038;DHT22;8123;50.906;6.172;2022-08-19T09:42:42;21.30;99.90
16038;DHT22;8123;50.906;6.172;2022-08-19T09:45:09;21.30;99.90
16038;DHT22;8123;50.906;6.172;2022-08-19T09:47:35;21.40;99.90
16038;DHT22;8123;50.906;6.172;2022-08-19T09:50:05;21.50;99.90
16038;DHT22;8123;50.906;6.172;2022-08-19T09:52:31;21.40;99.90
16038;DHT22;8123;50.906;6.172;2022-08-19T09:54:56;21.50;99.90
16038;DHT22;8123;50.906;6.172;2022-08-19T09:57:22;21.60;99.90
16038;DHT22;8123;50.906;6.172;2022-08-19T09:59:49;21.60;99.90
16038;DHT22;8123;50.906;6.172;2022-08-19T10:02:15;21.60;99.90
16038;DHT22;8123;50.906;6.172;2022-08-19T10:04:41;21.80;99.90
16038;DHT22;8123;50.906;6.172;2022-08-19T10:07:29;22.00;99.90
16038;DHT22;8123;50.906;6.172;2022-08-19T10:09:55;22.00;99.90
16038;DHT22;8123;50.906;6.172;2022-08-19T10:12:22;22.00;99.90
16038;DHT22;8123;50.906;6.172;2022-08-19T10:14:48;22.20;99.90
16038;DHT22;8123;50.906;6.172;2022-08-19T10:17:14;22.20;99.90
16038;DHT22;8123;50.906;6.172;2022-08-19T10:19:40;22.10;99.90
16038;DHT22;8123;50.906;6.172;2022-08-19T10:22:06;22.10;99.90
16038;DHT22;8123;50.906;6.172;2022-08-19T10:24:35;22.20;99.90
16038;DHT22;8123;50.906;6.172;2022-08-19T10:27:02;22.20;99.90
16038;DHT22;8123;50.906;6.172;2022-08-19T10:29:32;22.10;99.90
16038;DHT22;8123;50.906;6.172;2022-08-19T10:32:01;22.00;99.90
16038;DHT22;8123;50.906;6.172;2022-08-19T10:34:29;22.00;99.90
16038;DHT22;8123;50.906;6.172;2022-08-19T10:36:56;22.00;99.90
16038;DHT22;8123;50.906;6.172;2022-08-19T10:39:21;22.00;99.90
16038;DHT22;8123;50.906;6.172;2022-08-19T10:41:47;22.00;99.90
16038;DHT22;8123;50.906;6.172;2022-08-19T10:44:14;22.10;99.90
16038;DHT22;8123;50.906;6.172;2022-08-19T10:46:43;22.10;99.90
16038;DHT22;8123;50.906;6.172;2022-08-19T10:49:10;22.10;99.90
16038;DHT22;8123;50.906;6.172;2022-08-19T10:51:38;22.00;99.90
16038;DHT22;8123;50.906;6.172;2022-08-19T10:54:24;22.10;99.90
16038;DHT22;8123;50.906;6.172;2022-08-19T10:57:09;22.10;99.90
16038;DHT22;8123;50.906;6.172;2022-08-19T10:59:35;22.20;99.90
16038;DHT22;8123;50.906;6.172;2022-08-19T11:02:04;22.30;99.90
16038;DHT22;8123;50.906;6.172;2022-08-19T11:04:32;22.40;99.90
16038;DHT22;8123;50.906;6.172;2022-08-19T11:06:58;22.40;99.90
16038;DHT22;8123;50.906;6.172;2022-08-19T11:09:25;22.60;99.90
16038;DHT22;8123;50.906;6.172;2022-08-19T11:11:54;22.60;99.90
16038;DHT22;8123;50.906;6.172;2022-08-19T11:14:22;22.70;99.90
16038;DHT22;8123;50.906;6.172;2022-08-19T11:16:49;22.70;99.90
16038;DHT22;8123;50.906;6.172;2022-08-19T11:19:15;22.70;99.90
16038;DHT22;8123;50.906;6.172;2022-08-19T11:21:45;22.70;99.90
16038;DHT22;8123;50.906;6.172;2022-08-19T11:24:24;22.80;99.90
16038;DHT22;8123;50.906;6.172;2022-08-19T11:26:52;22.80;99.90
16038;DHT22;8123;50.906;6.172;2022-08-19T11:29:20;22.80;99.90
16038;DHT22;8123;50.906;6.172;2022-08-19T11:31:48;22.80;99.90
16038;DHT22;8123;50.906;6.172;2022-08-19T11:34:21;23.00;99.90
16038;DHT22;8123;50.906;6.172;2022-08-19T11:36:48;23.00;99.90
16038;DHT22;8123;50.906;6.172;2022-08-19T11:39:17;23.10;99.90
16038;DHT22;8123;50.906;6.172;2022-08-19T11:41:45;23.20;99.90
16038;DHT22;8123;50.906;6.172;2022-08-19T11:44:11;23.20;99.90
16038;DHT22;8123;50.906;6.172;2022-08-19T11:46:40;23.20;99.90
16038;DHT22;8123;50.906;6.172;2022-08-19T11:49:06;23.20;99.90
16038;DHT22;8123;50.906;6.172;2022-08-19T11:51:33;23.00;99.90
16038;DHT22;8123;50.906;6.172;2022-08-19T11:53:59;23.20;99.90
16038;DHT22;8123;50.906;6.172;2022-08-19T11:56:26;23.30;99.90
16038;DHT22;8123;50.906;6.172;2022-08-19T11:58:53;23.30;99.90
16038;DHT22;8123;50.906;6.172;2022-08-19T12:01:22;23.40;99.90
16038;DHT22;8123;50.906;6.172;2022-08-19T12:03:50;23.30;99.90
16038;DHT22;8123;50.906;6.172;2022-08-19T12:06:22;23.30;99.90
16038;DHT22;8123;50.906;6.172;2022-08-19T12:08:50;23.50;99.90
16038;DHT22;8123;50.906;6.172;2022-08-19T12:11:16;23.30;99.90
16038;DHT22;8123;50.906;6.172;2022-08-19T12:13:42;23.20;99.90
16038;DHT22;8123;50.906;6.172;2022-08-19T12:16:17;23.20;99.90
16038;DHT22;8123;50.906;6.172;2022-08-19T12:18:43;23.20;99.90
16038;DHT22;8123;50.906;6.172;2022-08-19T12:21:15;23.40;99.90
16038;DHT22;8123;50.906;6.172;2022-08-19T12:23:42;23.50;99.90
16038;DHT22;8123;50.906;6.172;2022-08-19T12:26:09;23.50;99.90
16038;DHT22;8123;50.906;6.172;2022-08-19T12:28:35;23.50;99.90
16038;DHT22;8123;50.906;6.172;2022-08-19T12:31:00;23.50;99.90
16038;DHT22;8123;50.906;6.172;2022-08-19T12:33:26;23.50;99.90
16038;DHT22;8123;50.906;6.172;2022-08-19T12:35:53;23.50;99.90
16038;DHT22;8123;50.906;6.172;2022-08-19T12:38:20;23.60;99.90
16038;DHT22;8123;50.906;6.172;2022-08-19T12:40:49;23.60;99.90
16038;DHT22;8123;50.906;6.172;2022-08-19T12:43:17;23.70;99.90
16038;DHT22;8123;50.906;6.172;2022-08-19T12:45:43;23.70;99.90
16038;DHT22;8123;50.906;6.172;2022-08-19T12:48:10;23.60;99.90
16038;DHT22;8123;50.906;6.172;2022-08-19T12:50:39;23.70;99.90
16038;DHT22;8123;50.906;6.172;2022-08-19T12:53:05;23.80;99.90
16038;DHT22;8123;50.906;6.172;2022-08-19T12:55:31;23.70;99.90
16038;DHT22;8123;50.906;6.172;2022-08-19T12:57:57;23.70;99.90
16038;DHT22;8123;50.906;6.172;2022-08-19T13:00:23;23.90;99.90
16038;DHT22;8123;50.906;6.172;2022-08-19T13:02:50;23.90;99.90
16038;DHT22;8123;50.906;6.172;2022-08-19T13:05:19;23.90;99.90
16038;DHT22;8123;50.906;6.172;2022-08-19T13:07:49;23.90;99.90
16038;DHT22;8123;50.906;6.172;2022-08-19T13:10:17;23.90;99.90
16038;DHT22;8123;50.906;6.172;2022-08-19T13:12:45;24.00;99.90
16038;DHT22;8123;50.906;6.172;2022-08-19T13:15:12;24.00;99.90
16038;DHT22;8123;50.906;6.172;2022-08-19T13:17:39;24.00;99.90
16038;DHT22;8123;50.906;6.172;2022-08-19T13:20:07;24.10;99.90
16038;DHT22;8123;50.906;6.172;2022-08-19T13:22:33;24.10;99.90
16038;DHT22;8123;50.906;6.172;2022-08-19T13:25:01;24.30;99.90
16038;DHT22;8123;50.906;6.172;2022-08-19T13:27:26;24.40;99.90
16038;DHT22;8123;50.906;6.172;2022-08-19T13:29:52;24.40;99.90
16038;DHT22;8123;50.906;6.172;2022-08-19T13:32:36;24.40;99.90
16038;DHT22;8123;50.906;6.172;2022-08-19T13:35:21;24.60;99.90
16038;DHT22;8123;50.906;6.172;2022-08-19T13:37:46;24.70;99.90
16038;DHT22;8123;50.906;6.172;2022-08-19T13:40:14;24.80;99.90
16038;DHT22;8123;50.906;6.172;2022-08-19T13:42:43;24.80;99.90
16038;DHT22;8123;50.906;6.172;2022-08-19T13:45:09;24.80;99.90
16038;DHT22;8123;50.906;6.172;2022-08-19T13:47:36;24.90;99.90
16038;DHT22;8123;50.906;6.172;2022-08-19T13:50:12;25.00;99.90
16038;DHT22;8123;50.906;6.172;2022-08-19T13:52:39;25.00;99.90
16038;DHT22;8123;50.906;6.172;2022-08-19T13:55:06;25.10;99.90
16038;DHT22;8123;50.906;6.172;2022-08-19T13:57:32;25.20;99.90
16038;DHT22;8123;50.906;6.172;2022-08-19T13:59:58;25.10;99.90
16038;DHT22;8123;50.906;6.172;2022-08-19T14:02:25;25.10;99.90
16038;DHT22;8123;50.906;6.172;2022-08-19T14:04:51;25.00;99.90
16038;DHT22;8123;50.906;6.172;2022-08-19T14:07:17;25.00;99.90
16038;DHT22;8123;50.906;6.172;2022-08-19T14:09:43;25.00;99.90
16038;DHT22;8123;50.906;6.172;2022-08-19T14:12:09;24.90;99.90
16038;DHT22;8123;50.906;6.172;2022-08-19T14:14:38;24.90;99.90
16038;DHT22;8123;50.906;6.172;2022-08-19T14:17:08;24.90;99.90
16038;DHT22;8123;50.906;6.172;2022-08-19T14:19:34;24.90;99.90
16038;DHT22;8123;50.906;6.172;2022-08-19T14:22:00;24.90;99.90
16038;DHT22;8123;50.906;6.172;2022-08-19T14:24:25;25.00;99.90
16038;DHT22;8123;50.906;6.172;2022-08-19T14:26:51;24.90;99.90
16038;DHT22;8123;50.906;6.172;2022-08-19T14:29:17;24.90;99.90
16038;DHT22;8123;50.906;6.172;2022-08-19T14:31:43;24.90;99.90
16038;DHT22;8123;50.906;6.172;2022-08-19T14:34:09;24.90;99.90
16038;DHT22;8123;50.906;6.172;2022-08-19T14:36:36;25.00;99.90
16038;DHT22;8123;50.906;6.172;2022-08-19T14:39:03;24.90;99.90
16038;DHT22;8123;50.906;6.172;2022-08-19T14:41:28;24.90;99.90
16038;DHT22;8123;50.906;6.172;2022-08-19T14:43:56;24.70;99.90
16038;DHT22;8123;50.906;6.172;2022-08-19T14:46:24;24.60;99.90
16038;DHT22;8123;50.906;6.172;2022-08-19T14:48:51;24.60;99.90
16038;DHT22;8123;50.906;6.172;2022-08-19T14:51:17;24.50;99.90
16038;DHT22;8123;50.906;6.172;2022-08-19T14:53:43;24.50;99.90
16038;DHT22;8123;50.906;6.172;2022-08-19T14:56:15;24.80;99.90
16038;DHT22;8123;50.906;6.172;2022-08-19T14:58:42;24.40;99.90
16038;DHT22;8123;50.906;6.172;2022-08-19T15:01:08;24.40;99.90
16038;DHT22;8123;50.906;6.172;2022-08-19T15:03:35;24.30;99.90
16038;DHT22;8123;50.906;6.172;2022-08-19T15:06:04;24.30;99.90
16038;DHT22;8123;50.906;6.172;2022-08-19T15:08:32;24.20;99.90
16038;DHT22;8123;50.906;6.172;2022-08-19T15:11:00;24.20;99.90
16038;DHT22;8123;50.906;6.172;2022-08-19T15:13:28;24.30;99.90
16038;DHT22;8123;50.906;6.172;2022-08-19T15:15:55;24.30;99.90
16038;DHT22;8123;50.906;6.172;2022-08-19T15:18:22;24.30;99.90
16038;DHT22;8123;50.906;6.172;2022-08-19T15:20:49;24.40;99.90
16038;DHT22;8123;50.906;6.172;2022-08-19T15:23:15;24.40;99.90
16038;DHT22;8123;50.906;6.172;2022-08-19T15:25:42;24.50;99.90
16038;DHT22;8123;50.906;6.172;2022-08-19T15:28:08;24.80;99.90
16038;DHT22;8123;50.906;6.172;2022-08-19T15:30:37;24.90;99.90
16038;DHT22;8123;50.906;6.172;2022-08-19T15:33:03;25.00;99.90
16038;DHT22;8123;50.906;6.172;2022-08-19T15:35:29;24.90;99.90
16038;DHT22;8123;50.906;6.172;2022-08-19T15:37:55;24.70;99.90
16038;DHT22;8123;50.906;6.172;2022-08-19T15:40:22;24.70;99.90
16038;DHT22;8123;50.906;6.172;2022-08-19T15:42:48;24.40;99.90
16038;DHT22;8123;50.906;6.172;2022-08-19T15:45:15;24.40;99.90
16038;DHT22;8123;50.906;6.172;2022-08-19T15:47:41;24.20;99.90
16038;DHT22;8123;50.906;6.172;2022-08-19T15:50:16;24.20;99.90
16038;DHT22;8123;50.906;6.172;2022-08-19T15:52:48;24.20;99.90
16038;DHT22;8123;50.906;6.172;2022-08-19T15:55:14;24.10;99.90
16038;DHT22;8123;50.906;6.172;2022-08-19T15:57:40;24.20;99.90
16038;DHT22;8123;50.906;6.172;2022-08-19T16:00:24;24.10;99.90
16038;DHT22;8123;50.906;6.172;2022-08-19T16:03:16;24.10;99.90